sensor_id;sensor_type;location;lat;lon;timestamp;P1;durP1;ratioP1;P2;durP2;ratioP2
5690;SDS011;2870;42.680;23.364;2024-03-23T00:54:08;24.10;;;13.67;;
5690;SDS011;2870;42.680;23.364;2024-03-23T00:56:33;30.40;;;14.03;;
5690;SDS011;2870;42.680;23.364;2024-03-23T00:59:00;25.67;;;13.27;;
5690;SDS011;2870;42.680;23.364;2024-03-23T01:01:26;25.37;;;12.83;;
5690;SDS011;2870;42.680;23.364;2024-03-23T01:03:52;28.20;;;14.00;;
5690;SDS011;2870;42.680;23.364;2024-03-23T01:06:18;25.00;;;13.30;;
5690;SDS011;2870;42.680;23.364;2024-03-23T01:08:45;20.70;;;12.23;;
5690;SDS011;2870;42.680;23.364;2024-03-23T01:11:12;20.40;;;10.80;;
5690;SDS011;2870;42.680;23.364;2024-03-23T01:13:38;17.47;;;10.03;;
5690;SDS011;2870;42.680;23.364;2024-03-23T01:16:04;24.90;;;10.87;;
5690;SDS011;2870;42.680;23.364;2024-03-23T01:18:31;18.27;;;10.40;;
5690;SDS011;2870;42.680;23.364;2024-03-23T01:20:58;20.33;;;11.83;;
5690;SDS011;2870;42.680;23.364;2024-03-23T01:23:24;22.10;;;12.07;;
5690;SDS011;2870;42.680;23.364;2024-03-23T01:25:53;23.50;;;12.80;;
5690;SDS011;2870;42.680;23.364;2024-03-23T01:28:22;25.37;;;12.33;;
5690;SDS011;2870;42.680;23.364;2024-03-23T01:30:48;20.73;;;12.23;;
5690;SDS011;2870;42.680;23.364;2024-03-23T01:33:15;18.80;;;12.20;;
5690;SDS011;2870;42.680;23.364;2024-03-23T01:35:41;21.30;;;12.20;;
5690;SDS011;2870;42.680;23.364;2024-03-23T01:38:07;26.80;;;12.70;;
5690;SDS011;2870;42.680;23.364;2024-03-23T01:40:33;31.53;;;13.03;;
5690;SDS011;2870;42.680;23.364;2024-03-23T01:43:02;23.93;;;13.57;;
5690;SDS011;2870;42.680;23.364;2024-03-23T01:45:31;26.13;;;14.90;;
5690;SDS011;2870;42.680;23.364;2024-03-23T01:47:58;39.43;;;16.23;;
5690;SDS011;2870;42.680;23.364;2024-03-23T01:50:24;28.23;;;15.60;;
5690;SDS011;2870;42.680;23.364;2024-03-23T01:52:51;26.27;;;15.03;;
5690;SDS011;2870;42.680;23.364;2024-03-23T01:55:17;31.50;;;16.60;;
5690;SDS011;2870;42.680;23.364;2024-03-23T01:57:44;26.63;;;15.13;;
5690;SDS011;2870;42.680;23.364;2024-03-23T02:00:10;29.10;;;17.37;;
5690;SDS011;2870;42.680;23.364;2024-03-23T02:02:42;28.00;;;16.17;;
5690;SDS011;2870;42.680;23.364;2024-03-23T02:05:08;28.17;;;16.77;;
5690;SDS011;2870;42.680;23.364;2024-03-23T02:07:35;31.77;;;16.57;;
5690;SDS011;2870;42.680;23.364;2024-03-23T02:10:01;25.90;;;14.90;;
5690;SDS011;2870;42.680;23.364;2024-03-23T02:12:28;25.97;;;15.47;;
5690;SDS011;2870;42.680;23.364;2024-03-23T02:14:54;27.67;;;14.27;;
5690;SDS011;2870;42.680;23.364;2024-03-23T02:17:20;26.80;;;15.60;;
5690;SDS011;2870;42.680;23.364;2024-03-23T02:19:47;27.83;;;15.97;;
5690;SDS011;2870;42.680;23.364;2024-03-23T02:22:14;27.07;;;15.17;;
5690;SDS011;2870;42.680;23.364;2024-03-23T02:24:42;26.07;;;14.87;;
5690;SDS011;2870;42.680;23.364;2024-03-23T02:27:09;27.63;;;15.50;;
5690;SDS011;2870;42.680;23.364;2024-03-23T02:29:34;24.13;;;16.03;;
5690;SDS011;2870;42.680;23.364;2024-03-23T02:32:01;24.83;;;14.47;;
5690;SDS011;2870;42.680;23.364;2024-03-23T02:34:27;26.37;;;14.67;;
5690;SDS011;2870;42.680;23.364;2024-03-23T02:36:54;39.23;;;15.80;;
5690;SDS011;2870;42.680;23.364;2024-03-23T02:39:19;31.47;;;15.73;;
5690;SDS011;2870;42.680;23.364;2024-03-23T02:41:47;35.23;;;15.70;;
5690;SDS011;2870;42.680;23.364;2024-03-23T02:44:13;28.80;;;15.17;;
5690;SDS011;2870;42.680;23.364;2024-03-23T02:46:40;26.90;;;16.40;;
5690;SDS011;2870;42.680;23.364;2024-03-23T02:49:06;37.47;;;14.37;;
5690;SDS011;2870;42.680;23.364;2024-03-23T02:51:34;30.03;;;16.47;;
5690;SDS011;2870;42.680;23.364;2024-03-23T02:53:59;28.50;;;16.00;;
5690;SDS011;2870;42.680;23.364;2024-03-23T02:56:26;32.07;;;15.87;;
5690;SDS011;2870;42.680;23.364;2024-03-23T02:58:53;28.87;;;15.37;;
5690;SDS011;2870;42.680;23.364;2024-03-23T03:04:41;25.30;;;14.50;;
5690;SDS011;2870;42.680;23.364;2024-03-23T03:07:08;28.37;;;17.07;;
5690;SDS011;2870;42.680;23.364;2024-03-23T03:09:34;29.13;;;15.83;;
5690;SDS011;2870;42.680;23.364;2024-03-23T03:12:01;30.03;;;16.90;;
5690;SDS011;2870;42.680;23.364;2024-03-23T03:14:28;27.50;;;16.70;;
5690;SDS011;2870;42.680;23.364;2024-03-23T03:16:55;28.73;;;16.87;;
5690;SDS011;2870;42.680;23.364;2024-03-23T03:19:21;37.27;;;18.27;;
5690;SDS011;2870;42.680;23.364;2024-03-23T03:21:47;35.87;;;19.20;;
5690;SDS011;2870;42.680;23.364;2024-03-23T03:24:13;32.67;;;17.33;;
5690;SDS011;2870;42.680;23.364;2024-03-23T03:26:40;32.53;;;17.57;;
5690;SDS011;2870;42.680;23.364;2024-03-23T03:29:06;33.50;;;18.27;;
5690;SDS011;2870;42.680;23.364;2024-03-23T03:31:34;38.17;;;19.30;;
5690;SDS011;2870;42.680;23.364;2024-03-23T03:33:59;32.50;;;18.77;;
5690;SDS011;2870;42.680;23.364;2024-03-23T03:36:26;29.27;;;18.00;;
5690;SDS011;2870;42.680;23.364;2024-03-23T03:38:52;33.23;;;17.77;;
5690;SDS011;2870;42.680;23.364;2024-03-23T03:41:18;32.90;;;17.03;;
5690;SDS011;2870;42.680;23.364;2024-03-23T03:43:44;27.60;;;16.20;;
5690;SDS011;2870;42.680;23.364;2024-03-23T03:46:11;32.30;;;16.33;;
5690;SDS011;2870;42.680;23.364;2024-03-23T03:48:38;26.37;;;16.13;;
5690;SDS011;2870;42.680;23.364;2024-03-23T03:51:05;28.73;;;16.27;;
5690;SDS011;2870;42.680;23.364;2024-03-23T03:53:30;28.47;;;15.83;;
5690;SDS011;2870;42.680;23.364;2024-03-23T03:56:00;24.90;;;16.00;;
5690;SDS011;2870;42.680;23.364;2024-03-23T03:58:26;26.27;;;15.30;;
5690;SDS011;2870;42.680;23.364;2024-03-23T04:00:52;27.53;;;16.57;;
5690;SDS011;2870;42.680;23.364;2024-03-23T04:03:18;26.20;;;15.80;;
5690;SDS011;2870;42.680;23.364;2024-03-23T04:05:50;29.23;;;17.03;;
5690;SDS011;2870;42.680;23.364;2024-03-23T04:08:17;28.63;;;16.93;;
5690;SDS011;2870;42.680;23.364;2024-03-23T04:10:44;47.57;;;18.73;;
5690;SDS011;2870;42.680;23.364;2024-03-23T04:13:10;33.93;;;17.53;;
5690;SDS011;2870;42.680;23.364;2024-03-23T04:15:37;30.27;;;16.10;;
5690;SDS011;2870;42.680;23.364;2024-03-23T04:18:03;36.97;;;17.30;;
5690;SDS011;2870;42.680;23.364;2024-03-23T04:20:30;34.60;;;17.53;;
5690;SDS011;2870;42.680;23.364;2024-03-23T04:22:58;35.60;;;17.87;;
5690;SDS011;2870;42.680;23.364;2024-03-23T04:25:25;32.37;;;17.23;;
5690;SDS011;2870;42.680;23.364;2024-03-23T04:27:51;30.87;;;16.27;;
5690;SDS011;2870;42.680;23.364;2024-03-23T04:30:17;36.33;;;17.70;;
5690;SDS011;2870;42.680;23.364;2024-03-23T04:32:44;25.73;;;15.00;;
5690;SDS011;2870;42.680;23.364;2024-03-23T04:35:11;26.53;;;15.10;;
5690;SDS011;2870;42.680;23.364;2024-03-23T04:37:37;25.87;;;13.90;;
5690;SDS011;2870;42.680;23.364;2024-03-23T04:40:07;29.17;;;14.80;;
5690;SDS011;2870;42.680;23.364;2024-03-23T04:42:36;22.03;;;13.67;;
5690;SDS011;2870;42.680;23.364;2024-03-23T04:45:04;32.17;;;14.70;;
5690;SDS011;2870;42.680;23.364;2024-03-23T04:47:32;22.03;;;13.83;;
5690;SDS011;2870;42.680;23.364;2024-03-23T04:50:00;21.77;;;14.10;;
5690;SDS011;2870;42.680;23.364;2024-03-23T04:52:28;26.17;;;14.17;;
5690;SDS011;2870;42.680;23.364;2024-03-23T04:54:55;29.23;;;14.77;;
5690;SDS011;2870;42.680;23.364;2024-03-23T04:57:22;21.97;;;13.20;;
5690;SDS011;2870;42.680;23.364;2024-03-23T04:59:49;23.27;;;13.63;;
5690;SDS011;2870;42.680;23.364;2024-03-23T05:02:14;25.13;;;13.23;;
5690;SDS011;2870;42.680;23.364;2024-03-23T05:04:41;28.33;;;13.43;;
5690;SDS011;2870;42.680;23.364;2024-03-23T05:07:07;24.73;;;13.33;;
5690;SDS011;2870;42.680;23.364;2024-03-23T05:09:34;28.20;;;12.10;;
5690;SDS011;2870;42.680;23.364;2024-03-23T05:11:59;33.00;;;13.10;;
5690;SDS011;2870;42.680;23.364;2024-03-23T05:14:28;22.90;;;11.70;;
5690;SDS011;2870;42.680;23.364;2024-03-23T05:16:54;31.37;;;14.80;;
5690;SDS011;2870;42.680;23.364;2024-03-23T05:19:21;29.03;;;12.90;;
5690;SDS011;2870;42.680;23.364;2024-03-23T05:21:47;21.93;;;11.53;;
5690;SDS011;2870;42.680;23.364;2024-03-23T05:24:13;20.80;;;10.53;;
5690;SDS011;2870;42.680;23.364;2024-03-23T05:26:40;16.23;;;9.80;;
5690;SDS011;2870;42.680;23.364;2024-03-23T05:29:06;16.80;;;9.97;;
5690;SDS011;2870;42.680;23.364;2024-03-23T05:31:37;13.63;;;9.50;;
5690;SDS011;2870;42.680;23.364;2024-03-23T05:34:03;14.73;;;9.73;;
5690;SDS011;2870;42.680;23.364;2024-03-23T05:36:30;14.83;;;10.27;;
5690;SDS011;2870;42.680;23.364;2024-03-23T05:38:57;16.50;;;10.37;;
5690;SDS011;2870;42.680;23.364;2024-03-23T05:41:24;22.07;;;10.60;;
5690;SDS011;2870;42.680;23.364;2024-03-23T05:43:50;23.13;;;11.47;;
5690;SDS011;2870;42.680;23.364;2024-03-23T05:46:16;18.50;;;10.10;;
5690;SDS011;2870;42.680;23.364;2024-03-23T05:48:44;18.63;;;11.13;;
5690;SDS011;2870;42.680;23.364;2024-03-23T05:51:11;19.03;;;9.67;;
5690;SDS011;2870;42.680;23.364;2024-03-23T05:53:37;22.03;;;10.80;;
5690;SDS011;2870;42.680;23.364;2024-03-23T05:56:04;18.83;;;11.60;;
5690;SDS011;2870;42.680;23.364;2024-03-23T05:58:31;20.50;;;12.27;;
5690;SDS011;2870;42.680;23.364;2024-03-23T06:00:58;23.67;;;11.40;;
5690;SDS011;2870;42.680;23.364;2024-03-23T06:03:25;16.07;;;9.37;;
5690;SDS011;2870;42.680;23.364;2024-03-23T06:05:54;18.07;;;10.87;;
5690;SDS011;2870;42.680;23.364;2024-03-23T06:08:20;20.20;;;10.57;;
5690;SDS011;2870;42.680;23.364;2024-03-23T06:10:47;34.97;;;9.67;;
5690;SDS011;2870;42.680;23.364;2024-03-23T06:13:13;16.50;;;10.00;;
5690;SDS011;2870;42.680;23.364;2024-03-23T06:15:39;17.90;;;10.47;;
5690;SDS011;2870;42.680;23.364;2024-03-23T06:18:05;18.37;;;10.87;;
5690;SDS011;2870;42.680;23.364;2024-03-23T06:20:32;27.23;;;10.70;;
5690;SDS011;2870;42.680;23.364;2024-03-23T06:23:00;17.77;;;10.93;;
5690;SDS011;2870;42.680;23.364;2024-03-23T06:25:28;27.43;;;12.17;;
5690;SDS011;2870;42.680;23.364;2024-03-23T06:27:54;17.33;;;10.47;;
5690;SDS011;2870;42.680;23.364;2024-03-23T06:30:21;15.77;;;11.10;;
5690;SDS011;2870;42.680;23.364;2024-03-23T06:32:47;22.40;;;11.13;;
5690;SDS011;2870;42.680;23.364;2024-03-23T06:35:13;27.93;;;12.03;;
5690;SDS011;2870;42.680;23.364;2024-03-23T06:37:39;23.03;;;14.30;;
5690;SDS011;2870;42.680;23.364;2024-03-23T06:40:08;28.00;;;15.10;;
5690;SDS011;2870;42.680;23.364;2024-03-23T06:42:35;30.30;;;17.80;;
5690;SDS011;2870;42.680;23.364;2024-03-23T06:45:01;34.83;;;19.80;;
5690;SDS011;2870;42.680;23.364;2024-03-23T06:47:28;30.43;;;17.50;;
5690;SDS011;2870;42.680;23.364;2024-03-23T06:49:54;25.93;;;16.53;;
5690;SDS011;2870;42.680;23.364;2024-03-23T06:52:20;22.60;;;15.20;;
5690;SDS011;2870;42.680;23.364;2024-03-23T06:54:47;26.77;;;15.40;;
5690;SDS011;2870;42.680;23.364;2024-03-23T06:57:14;21.20;;;13.40;;
5690;SDS011;2870;42.680;23.364;2024-03-23T06:59:41;26.03;;;15.20;;
5690;SDS011;2870;42.680;23.364;2024-03-23T07:02:06;32.33;;;14.57;;
5690;SDS011;2870;42.680;23.364;2024-03-23T07:04:34;21.87;;;12.60;;
5690;SDS011;2870;42.680;23.364;2024-03-23T07:06:59;22.37;;;14.10;;
5690;SDS011;2870;42.680;23.364;2024-03-23T07:09:27;24.53;;;13.93;;
5690;SDS011;2870;42.680;23.364;2024-03-23T07:11:53;22.20;;;14.67;;
5690;SDS011;2870;42.680;23.364;2024-03-23T07:14:22;23.70;;;14.70;;
5690;SDS011;2870;42.680;23.364;2024-03-23T07:16:49;21.73;;;13.13;;
5690;SDS011;2870;42.680;23.364;2024-03-23T07:19:16;22.60;;;13.23;;
5690;SDS011;2870;42.680;23.364;2024-03-23T07:21:43;22.43;;;13.23;;
5690;SDS011;2870;42.680;23.364;2024-03-23T07:24:09;47.50;;;15.10;;
5690;SDS011;2870;42.680;23.364;2024-03-23T07:26:36;21.10;;;12.70;;
5690;SDS011;2870;42.680;23.364;2024-03-23T07:29:03;26.00;;;14.00;;
5690;SDS011;2870;42.680;23.364;2024-03-23T07:31:31;22.30;;;13.27;;
5690;SDS011;2870;42.680;23.364;2024-03-23T07:33:57;24.47;;;13.67;;
5690;SDS011;2870;42.680;23.364;2024-03-23T07:36:23;23.20;;;13.67;;
5690;SDS011;2870;42.680;23.364;2024-03-23T07:38:49;26.17;;;13.57;;
5690;SDS011;2870;42.680;23.364;2024-03-23T07:41:17;24.77;;;14.57;;
5690;SDS011;2870;42.680;23.364;2024-03-23T07:43:43;29.03;;;13.37;;
5690;SDS011;2870;42.680;23.364;2024-03-23T07:46:10;25.80;;;14.40;;
5690;SDS011;2870;42.680;23.364;2024-03-23T07:48:38;28.53;;;14.00;;
5690;SDS011;2870;42.680;23.364;2024-03-23T07:51:08;25.93;;;14.70;;
5690;SDS011;2870;42.680;23.364;2024-03-23T07:53:35;24.40;;;15.10;;
5690;SDS011;2870;42.680;23.364;2024-03-23T07:56:05;25.77;;;14.70;;
5690;SDS011;2870;42.680;23.364;2024-03-23T07:58:31;29.03;;;14.53;;
5690;SDS011;2870;42.680;23.364;2024-03-23T08:01:03;30.93;;;15.30;;
5690;SDS011;2870;42.680;23.364;2024-03-23T08:03:30;27.10;;;15.80;;
5690;SDS011;2870;42.680;23.364;2024-03-23T08:05:58;41.53;;;17.30;;
5690;SDS011;2870;42.680;23.364;2024-03-23T08:08:33;28.63;;;15.80;;
5690;SDS011;2870;42.680;23.364;2024-03-23T08:10:59;26.87;;;14.90;;
5690;SDS011;2870;42.680;23.364;2024-03-23T08:13:26;24.60;;;14.87;;
5690;SDS011;2870;42.680;23.364;2024-03-23T08:15:51;27.43;;;15.80;;
5690;SDS011;2870;42.680;23.364;2024-03-23T08:18:18;29.90;;;15.70;;
5690;SDS011;2870;42.680;23.364;2024-03-23T08:20:44;29.67;;;15.47;;
5690;SDS011;2870;42.680;23.364;2024-03-23T08:23:12;39.00;;;15.57;;
5690;SDS011;2870;42.680;23.364;2024-03-23T08:25:38;27.20;;;15.90;;
5690;SDS011;2870;42.680;23.364;2024-03-23T08:28:04;25.27;;;14.77;;
5690;SDS011;2870;42.680;23.364;2024-03-23T08:30:34;27.10;;;14.83;;
5690;SDS011;2870;42.680;23.364;2024-03-23T08:33:01;26.03;;;15.67;;
5690;SDS011;2870;42.680;23.364;2024-03-23T08:35:27;31.13;;;16.33;;
5690;SDS011;2870;42.680;23.364;2024-03-23T08:37:54;31.20;;;14.97;;
5690;SDS011;2870;42.680;23.364;2024-03-23T08:40:21;29.53;;;15.03;;
5690;SDS011;2870;42.680;23.364;2024-03-23T08:42:48;26.83;;;14.20;;
5690;SDS011;2870;42.680;23.364;2024-03-23T08:45:14;30.33;;;14.80;;
5690;SDS011;2870;42.680;23.364;2024-03-23T08:47:40;30.40;;;15.20;;
5690;SDS011;2870;42.680;23.364;2024-03-23T08:50:06;25.97;;;15.10;;
5690;SDS011;2870;42.680;23.364;2024-03-23T08:52:33;47.50;;;15.47;;
5690;SDS011;2870;42.680;23.364;2024-03-23T08:54:59;24.40;;;14.20;;
5690;SDS011;2870;42.680;23.364;2024-03-23T08:57:27;26.57;;;14.53;;
5690;SDS011;2870;42.680;23.364;2024-03-23T08:59:53;25.00;;;14.47;;
5690;SDS011;2870;42.680;23.364;2024-03-23T09:02:20;27.70;;;16.43;;
5690;SDS011;2870;42.680;23.364;2024-03-23T09:04:45;27.03;;;14.53;;
5690;SDS011;2870;42.680;23.364;2024-03-23T09:07:12;28.70;;;15.00;;
5690;SDS011;2870;42.680;23.364;2024-03-23T09:09:38;28.23;;;15.23;;
5690;SDS011;2870;42.680;23.364;2024-03-23T09:12:05;25.73;;;14.07;;
5690;SDS011;2870;42.680;23.364;2024-03-23T09:14:33;29.83;;;14.60;;
5690;SDS011;2870;42.680;23.364;2024-03-23T09:16:59;20.90;;;13.63;;
5690;SDS011;2870;42.680;23.364;2024-03-23T09:19:26;25.90;;;14.33;;
5690;SDS011;2870;42.680;23.364;2024-03-23T09:21:54;21.47;;;14.00;;
5690;SDS011;2870;42.680;23.364;2024-03-23T09:24:19;23.20;;;14.73;;
5690;SDS011;2870;42.680;23.364;2024-03-23T09:26:46;27.10;;;14.20;;
5690;SDS011;2870;42.680;23.364;2024-03-23T09:29:12;27.67;;;14.63;;
5690;SDS011;2870;42.680;23.364;2024-03-23T09:31:40;42.83;;;15.30;;
5690;SDS011;2870;42.680;23.364;2024-03-23T09:34:06;31.33;;;15.30;;
5690;SDS011;2870;42.680;23.364;2024-03-23T09:36:33;24.77;;;13.70;;
5690;SDS011;2870;42.680;23.364;2024-03-23T09:38:59;40.87;;;13.67;;
5690;SDS011;2870;42.680;23.364;2024-03-23T09:41:25;23.10;;;13.43;;
5690;SDS011;2870;42.680;23.364;2024-03-23T09:43:52;24.53;;;14.00;;
5690;SDS011;2870;42.680;23.364;2024-03-23T09:46:19;23.50;;;13.20;;
5690;SDS011;2870;42.680;23.364;2024-03-23T09:48:47;31.23;;;13.57;;
5690;SDS011;2870;42.680;23.364;2024-03-23T09:51:14;19.60;;;12.27;;
5690;SDS011;2870;42.680;23.364;2024-03-23T09:53:39;27.20;;;13.87;;
5690;SDS011;2870;42.680;23.364;2024-03-23T09:56:07;20.20;;;12.87;;
5690;SDS011;2870;42.680;23.364;2024-03-23T09:58:33;26.57;;;13.50;;
5690;SDS011;2870;42.680;23.364;2024-03-23T10:01:00;27.77;;;14.07;;
5690;SDS011;2870;42.680;23.364;2024-03-23T10:03:27;19.83;;;13.20;;
5690;SDS011;2870;42.680;23.364;2024-03-23T10:06:02;29.30;;;13.53;;
5690;SDS011;2870;42.680;23.364;2024-03-23T10:08:30;21.00;;;12.60;;
5690;SDS011;2870;42.680;23.364;2024-03-23T10:10:58;24.20;;;13.17;;
5690;SDS011;2870;42.680;23.364;2024-03-23T10:13:38;24.50;;;12.73;;
5690;SDS011;2870;42.680;23.364;2024-03-23T10:16:07;17.03;;;11.23;;
5690;SDS011;2870;42.680;23.364;2024-03-23T10:18:36;21.00;;;12.87;;
5690;SDS011;2870;42.680;23.364;2024-03-23T10:21:08;22.77;;;12.40;;
5690;SDS011;2870;42.680;23.364;2024-03-23T10:23:36;36.93;;;12.17;;
5690;SDS011;2870;42.680;23.364;2024-03-23T10:26:13;21.57;;;11.57;;
5690;SDS011;2870;42.680;23.364;2024-03-23T10:28:50;23.10;;;11.83;;
5690;SDS011;2870;42.680;23.364;2024-03-23T10:31:25;21.57;;;11.93;;
5690;SDS011;2870;42.680;23.364;2024-03-23T10:33:51;23.80;;;10.70;;
5690;SDS011;2870;42.680;23.364;2024-03-23T10:36:21;36.07;;;12.40;;
5690;SDS011;2870;42.680;23.364;2024-03-23T10:38:48;20.83;;;12.53;;
5690;SDS011;2870;42.680;23.364;2024-03-23T10:41:17;24.27;;;12.27;;
5690;SDS011;2870;42.680;23.364;2024-03-23T10:43:43;27.87;;;12.23;;
5690;SDS011;2870;42.680;23.364;2024-03-23T10:46:12;24.70;;;12.00;;
5690;SDS011;2870;42.680;23.364;2024-03-23T10:48:38;19.17;;;10.90;;
5690;SDS011;2870;42.680;23.364;2024-03-23T10:51:05;20.50;;;11.87;;
5690;SDS011;2870;42.680;23.364;2024-03-23T10:53:34;19.13;;;11.30;;
5690;SDS011;2870;42.680;23.364;2024-03-23T10:56:02;16.80;;;10.70;;
5690;SDS011;2870;42.680;23.364;2024-03-23T10:58:30;19.53;;;10.77;;
5690;SDS011;2870;42.680;23.364;2024-03-23T11:00:58;19.17;;;10.50;;
5690;SDS011;2870;42.680;23.364;2024-03-23T11:03:34;16.67;;;10.30;;
5690;SDS011;2870;42.680;23.364;2024-03-23T11:06:02;17.10;;;11.10;;
5690;SDS011;2870;42.680;23.364;2024-03-23T11:08:30;26.80;;;12.30;;
5690;SDS011;2870;42.680;23.364;2024-03-23T11:11:18;21.73;;;10.10;;
5690;SDS011;2870;42.680;23.364;2024-03-23T11:13:47;19.10;;;10.27;;
5690;SDS011;2870;42.680;23.364;2024-03-23T11:16:14;19.00;;;10.73;;
5690;SDS011;2870;42.680;23.364;2024-03-23T11:18:41;18.10;;;9.73;;
5690;SDS011;2870;42.680;23.364;2024-03-23T11:21:07;18.20;;;10.77;;
5690;SDS011;2870;42.680;23.364;2024-03-23T11:23:34;16.87;;;9.30;;
5690;SDS011;2870;42.680;23.364;2024-03-23T11:26:00;22.10;;;10.77;;
5690;SDS011;2870;42.680;23.364;2024-03-23T11:28:28;18.83;;;9.93;;
5690;SDS011;2870;42.680;23.364;2024-03-23T11:30:53;15.17;;;9.40;;
5690;SDS011;2870;42.680;23.364;2024-03-23T11:33:20;16.70;;;10.10;;
5690;SDS011;2870;42.680;23.364;2024-03-23T11:35:46;24.80;;;9.73;;
5690;SDS011;2870;42.680;23.364;2024-03-23T11:38:13;22.27;;;10.50;;
5690;SDS011;2870;42.680;23.364;2024-03-23T11:40:40;21.77;;;10.80;;
5690;SDS011;2870;42.680;23.364;2024-03-23T11:43:08;24.70;;;10.70;;
5690;SDS011;2870;42.680;23.364;2024-03-23T11:45:37;19.20;;;9.20;;
5690;SDS011;2870;42.680;23.364;2024-03-23T11:48:06;19.40;;;10.40;;
5690;SDS011;2870;42.680;23.364;2024-03-23T11:50:32;22.60;;;10.37;;
5690;SDS011;2870;42.680;23.364;2024-03-23T11:53:16;19.87;;;10.00;;
5690;SDS011;2870;42.680;23.364;2024-03-23T11:55:47;15.00;;;8.90;;
5690;SDS011;2870;42.680;23.364;2024-03-23T11:58:14;17.73;;;10.60;;
5690;SDS011;2870;42.680;23.364;2024-03-23T12:00:48;19.07;;;9.90;;
5690;SDS011;2870;42.680;23.364;2024-03-23T12:03:16;18.93;;;9.93;;
5690;SDS011;2870;42.680;23.364;2024-03-23T12:05:46;19.67;;;9.20;;
5690;SDS011;2870;42.680;23.364;2024-03-23T12:08:17;19.53;;;9.10;;
5690;SDS011;2870;42.680;23.364;2024-03-23T12:11:04;17.90;;;10.20;;
5690;SDS011;2870;42.680;23.364;2024-03-23T12:13:31;13.20;;;8.97;;
5690;SDS011;2870;42.680;23.364;2024-03-23T12:16:10;17.43;;;10.50;;
5690;SDS011;2870;42.680;23.364;2024-03-23T12:18:36;16.67;;;8.70;;
5690;SDS011;2870;42.680;23.364;2024-03-23T12:21:04;17.17;;;9.40;;
5690;SDS011;2870;42.680;23.364;2024-03-23T12:23:30;15.60;;;8.47;;
5690;SDS011;2870;42.680;23.364;2024-03-23T12:25:57;15.90;;;9.40;;
5690;SDS011;2870;42.680;23.364;2024-03-23T12:28:23;17.70;;;9.43;;
5690;SDS011;2870;42.680;23.364;2024-03-23T12:30:50;15.00;;;7.73;;
5690;SDS011;2870;42.680;23.364;2024-03-23T12:33:18;14.53;;;7.60;;
5690;SDS011;2870;42.680;23.364;2024-03-23T12:35:45;10.90;;;6.70;;
5690;SDS011;2870;42.680;23.364;2024-03-23T12:38:11;12.00;;;7.00;;
5690;SDS011;2870;42.680;23.364;2024-03-23T12:40:37;11.23;;;6.73;;
5690;SDS011;2870;42.680;23.364;2024-03-23T12:43:03;12.10;;;7.90;;
5690;SDS011;2870;42.680;23.364;2024-03-23T12:45:30;17.80;;;7.00;;
5690;SDS011;2870;42.680;23.364;2024-03-23T12:47:56;16.07;;;7.87;;
5690;SDS011;2870;42.680;23.364;2024-03-23T12:50:24;12.63;;;6.97;;
5690;SDS011;2870;42.680;23.364;2024-03-23T12:52:50;13.30;;;7.77;;
5690;SDS011;2870;42.680;23.364;2024-03-23T12:55:17;16.73;;;8.50;;
5690;SDS011;2870;42.680;23.364;2024-03-23T12:57:43;13.20;;;7.53;;
5690;SDS011;2870;42.680;23.364;2024-03-23T13:00:10;14.23;;;7.70;;
5690;SDS011;2870;42.680;23.364;2024-03-23T13:02:36;17.60;;;6.80;;
5690;SDS011;2870;42.680;23.364;2024-03-23T13:05:04;12.30;;;6.37;;
5690;SDS011;2870;42.680;23.364;2024-03-23T13:07:31;16.77;;;5.97;;
5690;SDS011;2870;42.680;23.364;2024-03-23T13:09:58;12.03;;;5.73;;
5690;SDS011;2870;42.680;23.364;2024-03-23T13:12:24;9.43;;;6.37;;
5690;SDS011;2870;42.680;23.364;2024-03-23T13:14:51;11.90;;;6.20;;
5690;SDS011;2870;42.680;23.364;2024-03-23T13:17:16;10.87;;;5.47;;
5690;SDS011;2870;42.680;23.364;2024-03-23T13:19:43;10.00;;;6.00;;
5690;SDS011;2870;42.680;23.364;2024-03-23T13:22:09;14.63;;;6.83;;
5690;SDS011;2870;42.680;23.364;2024-03-23T13:24:38;16.00;;;7.50;;
5690;SDS011;2870;42.680;23.364;2024-03-23T13:27:04;17.00;;;8.00;;
5690;SDS011;2870;42.680;23.364;2024-03-23T13:29:32;16.00;;;8.13;;
5690;SDS011;2870;42.680;23.364;2024-03-23T13:31:59;13.63;;;7.43;;
5690;SDS011;2870;42.680;23.364;2024-03-23T13:34:26;13.43;;;7.30;;
5690;SDS011;2870;42.680;23.364;2024-03-23T13:36:53;12.63;;;7.43;;
5690;SDS011;2870;42.680;23.364;2024-03-23T13:39:19;12.60;;;7.57;;
5690;SDS011;2870;42.680;23.364;2024-03-23T13:41:49;10.50;;;6.20;;
5690;SDS011;2870;42.680;23.364;2024-03-23T13:44:15;20.90;;;8.60;;
5690;SDS011;2870;42.680;23.364;2024-03-23T13:46:41;15.13;;;6.70;;
5690;SDS011;2870;42.680;23.364;2024-03-23T13:49:11;6.83;;;4.00;;
5690;SDS011;2870;42.680;23.364;2024-03-23T13:51:49;9.40;;;3.77;;
5690;SDS011;2870;42.680;23.364;2024-03-23T13:54:16;9.47;;;4.00;;
5690;SDS011;2870;42.680;23.364;2024-03-23T13:56:41;12.53;;;3.23;;
5690;SDS011;2870;42.680;23.364;2024-03-23T13:59:11;8.77;;;4.00;;
5690;SDS011;2870;42.680;23.364;2024-03-23T14:01:37;8.23;;;4.10;;
5690;SDS011;2870;42.680;23.364;2024-03-23T14:04:03;7.27;;;4.13;;
5690;SDS011;2870;42.680;23.364;2024-03-23T14:06:29;6.00;;;3.40;;
5690;SDS011;2870;42.680;23.364;2024-03-23T14:08:56;6.07;;;3.60;;
5690;SDS011;2870;42.680;23.364;2024-03-23T14:11:22;11.70;;;3.50;;
5690;SDS011;2870;42.680;23.364;2024-03-23T14:13:48;7.83;;;3.90;;
5690;SDS011;2870;42.680;23.364;2024-03-23T14:16:15;6.30;;;3.40;;
5690;SDS011;2870;42.680;23.364;2024-03-23T14:18:42;9.83;;;3.60;;
5690;SDS011;2870;42.680;23.364;2024-03-23T14:21:08;9.33;;;4.00;;
5690;SDS011;2870;42.680;23.364;2024-03-23T14:23:35;7.57;;;4.27;;
5690;SDS011;2870;42.680;23.364;2024-03-23T14:26:01;7.37;;;4.10;;
5690;SDS011;2870;42.680;23.364;2024-03-23T14:28:28;6.10;;;3.50;;
5690;SDS011;2870;42.680;23.364;2024-03-23T14:30:55;15.67;;;4.37;;
5690;SDS011;2870;42.680;23.364;2024-03-23T14:33:23;7.90;;;3.10;;
5690;SDS011;2870;42.680;23.364;2024-03-23T14:35:52;6.00;;;3.50;;
5690;SDS011;2870;42.680;23.364;2024-03-23T14:38:19;5.77;;;3.30;;
5690;SDS011;2870;42.680;23.364;2024-03-23T14:40:45;5.50;;;3.07;;
5690;SDS011;2870;42.680;23.364;2024-03-23T14:43:12;6.93;;;3.20;;
5690;SDS011;2870;42.680;23.364;2024-03-23T14:45:45;6.60;;;3.20;;
5690;SDS011;2870;42.680;23.364;2024-03-23T14:48:31;10.60;;;3.70;;
5690;SDS011;2870;42.680;23.364;2024-03-23T14:50:57;7.30;;;3.90;;
5690;SDS011;2870;42.680;23.364;2024-03-23T14:53:25;7.73;;;4.00;;
5690;SDS011;2870;42.680;23.364;2024-03-23T14:55:51;6.50;;;3.77;;
5690;SDS011;2870;42.680;23.364;2024-03-23T14:58:20;6.30;;;3.60;;
5690;SDS011;2870;42.680;23.364;2024-03-23T15:00:47;8.20;;;3.67;;
5690;SDS011;2870;42.680;23.364;2024-03-23T15:03:14;7.50;;;3.80;;
5690;SDS011;2870;42.680;23.364;2024-03-23T15:05:42;6.33;;;3.50;;
5690;SDS011;2870;42.680;23.364;2024-03-23T15:08:17;7.70;;;4.40;;
5690;SDS011;2870;42.680;23.364;2024-03-23T15:10:43;9.33;;;3.93;;
5690;SDS011;2870;42.680;23.364;2024-03-23T15:13:10;6.50;;;3.60;;
5690;SDS011;2870;42.680;23.364;2024-03-23T15:15:37;5.83;;;3.60;;
5690;SDS011;2870;42.680;23.364;2024-03-23T15:18:06;7.57;;;4.33;;
5690;SDS011;2870;42.680;23.364;2024-03-23T15:20:31;6.20;;;3.83;;
5690;SDS011;2870;42.680;23.364;2024-03-23T15:23:02;7.17;;;4.33;;
5690;SDS011;2870;42.680;23.364;2024-03-23T15:25:27;11.50;;;4.53;;
5690;SDS011;2870;42.680;23.364;2024-03-23T15:27:54;10.80;;;4.50;;
5690;SDS011;2870;42.680;23.364;2024-03-23T15:30:20;37.63;;;5.10;;
5690;SDS011;2870;42.680;23.364;2024-03-23T15:32:47;7.20;;;4.03;;
5690;SDS011;2870;42.680;23.364;2024-03-23T15:35:13;6.60;;;3.73;;
5690;SDS011;2870;42.680;23.364;2024-03-23T15:37:39;7.30;;;4.10;;